createdAt,value
2018-09-13T03:00:30.643Z,6.83
2018-09-13T04:26:30.152Z,7.58
2018-09-13T05:36:21.044Z,7.07
2018-09-13T06:24:51.613Z,8.58
2018-09-13T07:17:53.144Z,11.13
2018-09-13T08:14:05.050Z,12.03
2018-09-13T08:54:59.092Z,12.60
2018-09-13T08:58:13.891Z,12.20
2018-09-13T09:07:33.461Z,11.25
2018-09-13T09:17:03.517Z,11.57
2018-09-13T10:05:17.287Z,11.35
2018-09-13T10:07:57.889Z,12.40
2018-09-13T10:10:54.163Z,12.33
2018-09-13T10:13:33.799Z,11.70
2018-09-13T10:16:12.336Z,12.68
2018-09-13T10:18:58.483Z,11.90
2018-09-13T10:21:43.603Z,11.90
2018-09-13T10:24:36.837Z,10.55
2018-09-13T10:27:19.126Z,12.35
2018-09-13T10:30:02.310Z,11.78
2018-09-13T10:33:01.162Z,11.65
2018-09-13T10:35:49.174Z,11.63
2018-09-13T10:38:38.457Z,11.48
2018-09-13T10:44:28.288Z,12.50
2018-09-13T10:47:13.259Z,12.43
2018-09-13T10:50:00.282Z,12.03
2018-09-13T10:55:02.827Z,11.90
2018-09-13T10:57:50.311Z,12.60
2018-09-13T11:00:34.697Z,11.57
2018-09-13T11:03:20.854Z,11.80
2018-09-13T11:06:09.207Z,10.32
2018-09-13T11:08:59.624Z,12.45
2018-09-13T11:21:00.690Z,13.53
2018-09-13T11:23:50.513Z,12.33
2018-09-13T11:26:50.605Z,12.23
2018-09-13T11:30:02.868Z,11.70
2018-09-13T11:39:39.912Z,11.70
2018-09-13T11:42:50.312Z,10.68
2018-09-13T11:49:23.968Z,10.93
2018-09-13T11:57:07.230Z,11.60
2018-09-13T11:59:51.761Z,10.93
2018-09-13T12:09:36.418Z,10.95
2018-09-13T12:21:11.161Z,14.60
2018-09-13T12:41:45.367Z,14.05
2018-09-13T13:31:41.828Z,12.05
2018-09-13T19:52:15.717Z,8.38
2018-09-13T21:32:28.387Z,9.10
2018-09-13T21:34:57.248Z,9.33
2018-09-13T21:37:25.797Z,11.10
2018-09-13T21:39:54.713Z,9.95
2018-09-13T21:42:23.238Z,10.40
2018-09-13T21:44:52.117Z,9.53
2018-09-13T21:47:22.022Z,12.00
2018-09-13T21:49:50.570Z,9.85
2018-09-13T21:52:20.578Z,10.82
2018-09-13T21:54:49.502Z,9.75
2018-09-13T21:57:18.412Z,10.65
2018-09-13T21:59:47.292Z,11.15
2018-09-13T22:02:15.832Z,11.28
2018-09-13T22:04:44.407Z,10.80
2018-09-13T22:07:12.976Z,12.70
2018-09-13T22:09:42.326Z,11.85
2018-09-13T22:12:13.189Z,12.53
2018-09-13T22:14:42.399Z,11.25
2018-09-13T22:17:11.734Z,12.35
2018-09-13T22:19:40.648Z,11.10
2018-09-13T22:22:11.182Z,11.70
2018-09-13T22:24:40.427Z,11.20
2018-09-13T22:27:08.985Z,11.20
2018-09-13T22:29:37.491Z,10.82
2018-09-13T22:32:06.843Z,11.05
2018-09-13T22:34:36.131Z,10.72
2018-09-13T22:37:04.682Z,11.40
2018-09-13T22:39:33.212Z,11.15
2018-09-13T22:42:01.699Z,10.28
2018-09-13T22:44:34.793Z,11.18
2018-09-13T22:47:03.320Z,11.55
2018-09-13T22:49:32.207Z,11.00
2018-09-13T22:52:01.041Z,11.12
2018-09-13T22:54:30.633Z,11.45
2018-09-13T22:56:59.747Z,11.73
2018-09-13T22:59:28.724Z,11.40
2018-09-13T23:01:57.603Z,11.40
2018-09-13T23:04:26.410Z,10.98
2018-09-13T23:06:54.926Z,11.48
2018-09-13T23:09:23.759Z,12.18
2018-09-13T23:11:52.550Z,11.33
2018-09-13T23:14:21.455Z,13.95
2018-09-13T23:16:50.465Z,12.15
2018-09-13T23:19:19.017Z,12.20
2018-09-13T23:21:47.879Z,13.30
2018-09-13T23:24:16.445Z,12.18
2018-09-13T23:26:45.271Z,11.75
2018-09-13T23:29:13.862Z,14.07
2018-09-13T23:31:42.997Z,12.47
2018-09-13T23:34:11.532Z,13.50
2018-09-13T23:36:40.537Z,14.87
2018-09-13T23:39:09.963Z,14.55
2018-09-13T23:41:39.935Z,15.30
2018-09-13T23:44:09.096Z,13.05
2018-09-13T23:46:39.161Z,16.37
2018-09-13T23:49:08.369Z,15.03
2018-09-13T23:51:47.564Z,16.42
2018-09-13T23:54:16.661Z,15.50
2018-09-13T23:56:45.161Z,15.55
2018-09-13T23:59:13.647Z,16.02
